Time;durP1;ratioP1;P1;durP2;ratioP2;P2;SDS_P1;SDS_P2;PMS_P1;PMS_P2;Temp;Humidity;BMP_temperature;BMP_pressure;BME280_temperature;BME280_humidity;BME280_pressure;Samples;Min_cycle;Max_cycle;Signal;HPM_P1;HPM_P2
2023/07/06 00:01:33;;;;;;;0.20;0.20;;;;;;;18.80;78.53;100092.13;5024887;28;20124;-70
2023/07/06 00:03:59;;;;;;;0.22;0.22;;;;;;;18.76;78.19;100094.75;4992989;28;20057;-70
2023/07/06 00:06:25;;;;;;;0.20;0.20;;;;;;;18.72;78.42;100090.97;5027911;28;20244;-70
2023/07/06 00:08:52;;;;;;;0.20;0.20;;;;;;;18.70;78.21;100082.19;4992032;28;20107;-70
2023/07/06 00:11:20;;;;;;;0.20;0.20;;;;;;;18.70;78.81;100082.19;5024296;28;20081;-70
2023/07/06 00:13:47;;;;;;;0.20;0.20;;;;;;;18.67;78.47;100089.22;5024580;28;20049;-70
2023/07/06 00:16:13;;;;;;;0.20;0.20;;;;;;;18.64;79.05;100100.91;5024749;28;20055;-71
2023/07/06 00:18:41;;;;;;;0.20;0.20;;;;;;;18.62;79.07;100085.78;5024582;28;20075;-70
2023/07/06 00:21:08;;;;;;;0.20;0.20;;;;;;;18.61;78.47;100101.56;5005949;28;20041;-70
2023/07/06 00:23:34;;;;;;;0.20;0.20;;;;;;;18.59;78.59;100089.19;5026628;28;20183;-70
2023/07/06 00:26:00;;;;;;;0.20;0.20;;;;;;;18.62;78.60;100096.84;5007367;28;20579;-70
2023/07/06 00:28:28;;;;;;;0.20;0.20;;;;;;;18.62;79.22;100096.84;5024775;28;20338;-70
2023/07/06 00:30:57;;;;;;;0.20;0.20;;;;;;;18.59;79.18;100103.03;5026781;28;20045;-70
2023/07/06 00:33:25;;;;;;;0.20;0.20;;;;;;;18.58;79.93;100099.44;5025536;28;20052;-70
2023/07/06 00:35:51;;;;;;;0.20;0.20;;;;;;;18.58;80.19;100102.19;4990610;28;20087;-71
2023/07/06 00:38:19;;;;;;;0.30;0.30;;;;;;;18.54;79.70;100098.44;5023161;28;20191;-70
2023/07/06 00:40:47;;;;;;;0.20;0.20;;;;;;;18.51;80.11;100101.88;5006014;28;20533;-70
2023/07/06 00:43:18;;;;;;;0.20;0.20;;;;;;;18.49;80.21;100104.13;5027020;28;20144;-70
2023/07/06 00:45:47;;;;;;;0.20;0.20;;;;;;;18.48;80.42;100108.03;5025153;28;20048;-70
2023/07/06 00:48:20;;;;;;;0.20;0.20;;;;;;;18.47;80.72;100111.94;5023721;28;20057;-70
2023/07/06 00:50:53;;;;;;;0.20;0.20;;;;;;;18.48;81.16;100111.63;5025271;28;20061;-71
2023/07/06 00:53:21;;;;;;;0.20;0.20;;;;;;;18.50;81.14;100112.13;5007322;28;20140;-70
2023/07/06 00:55:48;;;;;;;0.20;0.20;;;;;;;18.54;81.39;100112.28;4989481;28;20057;-70
2023/07/06 00:58:18;;;;;;;0.20;0.20;;;;;;;18.55;80.95;100111.16;4990673;28;20147;-69
2023/07/06 01:00:47;;;;;;;0.30;0.30;;;;;;;18.56;81.38;100112.78;5007936;28;20057;-70
2023/07/06 01:03:19;;;;;;;0.20;0.20;;;;;;;18.60;81.25;100108.22;5022141;28;20131;-70
2023/07/06 01:05:48;;;;;;;0.20;0.20;;;;;;;18.60;81.44;100104.66;5024050;28;20060;-71
2023/07/06 01:08:20;;;;;;;0.20;0.20;;;;;;;18.63;81.55;100109.56;5025480;28;20048;-71
2023/07/06 01:10:48;;;;;;;0.20;0.20;;;;;;;18.64;81.65;100109.22;5026325;28;20065;-70
2023/07/06 01:13:14;;;;;;;0.30;0.30;;;;;;;18.61;82.18;100100.75;5024601;28;20548;-71
2023/07/06 01:15:48;;;;;;;0.20;0.20;;;;;;;18.61;82.58;100115.41;5023248;28;20077;-70
2023/07/06 01:18:22;;;;;;;0.20;0.20;;;;;;;18.60;82.89;100107.44;5007384;28;20149;-70
2023/07/06 01:20:56;;;;;;;0.20;0.20;;;;;;;18.59;82.92;100117.69;5022513;28;20041;-70
2023/07/06 01:23:46;;;;;;;0.20;0.20;;;;;;;18.56;83.61;100110.81;5024412;28;20053;-70
2023/07/06 01:26:26;;;;;;;0.20;0.20;;;;;;;18.55;83.87;100108.38;5023436;28;20334;-69
2023/07/06 01:29:16;;;;;;;0.20;0.20;;;;;;;18.52;83.87;100100.72;5023962;28;20660;-70
2023/07/06 01:31:50;;;;;;;0.20;0.20;;;;;;;18.53;83.91;100107.91;5005971;28;20459;-70
2023/07/06 01:34:25;;;;;;;0.43;0.20;;;;;;;18.53;84.11;100108.69;5023496;28;20056;-70
2023/07/06 01:36:59;;;;;;;0.25;0.25;;;;;;;18.56;84.10;100107.25;5022662;28;20061;-73
2023/07/06 01:39:28;;;;;;;0.32;0.20;;;;;;;18.58;84.31;100113.28;5023829;28;20584;-73
2023/07/06 01:42:25;;;;;;;0.20;0.20;;;;;;;18.60;84.22;100104.66;5024209;28;20103;-74
2023/07/06 01:44:52;;;;;;;0.20;0.20;;;;;;;18.68;83.82;100112.16;5006818;28;20429;-74
2023/07/06 01:47:20;;;;;;;;;;;;;;;18.69;83.97;100111.00;5025856;28;20060;-73
2023/07/06 01:49:48;;;;;;;0.20;0.20;;;;;;;18.71;83.45;100114.28;5006515;28;19936;-74
2023/07/06 01:52:25;;;;;;;0.20;0.20;;;;;;;18.71;83.68;100114.28;5025316;28;20045;-73
2023/07/06 01:54:58;;;;;;;;;;;;;;;18.72;83.39;100121.44;5025117;28;20115;-73
2023/07/06 01:57:31;;;;;;;0.20;0.20;;;;;;;18.73;82.89;100117.53;5024899;28;19925;-73
2023/07/06 02:00:00;;;;;;;0.20;0.20;;;;;;;18.75;83.53;100109.75;5005016;28;20144;-72
2023/07/06 02:02:30;;;;;;;0.20;0.20;;;;;;;18.75;83.76;100117.22;5007251;28;20053;-72
2023/07/06 02:05:00;;;;;;;0.20;0.20;;;;;;;18.80;83.90;100119.84;5024003;28;20057;-73
2023/07/06 02:07:27;;;;;;;0.20;0.20;;;;;;;18.83;83.63;100113.66;5024782;28;20038;-73
2023/07/06 02:09:54;;;;;;;0.20;0.20;;;;;;;18.87;83.82;100130.44;5022442;28;20579;-73
2023/07/06 02:12:20;;;;;;;0.20;0.20;;;;;;;18.85;84.18;100120.50;5022881;28;20038;-70
2023/07/06 02:14:48;;;;;;;0.20;0.20;;;;;;;18.96;83.74;100120.19;5025388;28;20054;-70
2023/07/06 02:17:15;;;;;;;0.20;0.20;;;;;;;18.99;84.16;100111.25;5024364;28;20046;-70
2023/07/06 02:19:43;;;;;;;0.20;0.20;;;;;;;19.02;84.23;100118.13;4990181;28;20110;-70
2023/07/06 02:22:10;;;;;;;0.30;0.30;;;;;;;19.03;84.17;100116.97;5022408;28;20049;-70
2023/07/06 02:24:36;;;;;;;0.20;0.20;;;;;;;19.05;83.86;100115.53;5022638;28;20053;-70
2023/07/06 02:27:03;;;;;;;0.30;0.30;;;;;;;19.08;83.93;100123.19;5021050;28;20069;-71
2023/07/06 02:29:29;;;;;;;0.30;0.30;;;;;;;19.13;83.61;100122.22;5023065;28;20053;-70
2023/07/06 02:31:55;;;;;;;0.20;0.20;;;;;;;19.18;82.91;100121.22;5005931;28;20472;-70
2023/07/06 02:34:25;;;;;;;0.20;0.20;;;;;;;19.19;82.85;100122.84;5024767;28;20103;-70
2023/07/06 02:36:53;;;;;;;0.20;0.20;;;;;;;19.21;82.43;100118.63;4989511;28;20045;-70
2023/07/06 02:39:23;;;;;;;0.30;0.30;;;;;;;19.22;82.20;100114.69;5004404;28;20115;-70
2023/07/06 02:41:52;;;;;;;0.30;0.30;;;;;;;19.32;81.28;100127.41;5020956;28;20140;-70
2023/07/06 02:44:20;;;;;;;0.20;0.20;;;;;;;19.35;81.01;100131.50;5021728;28;20045;-71
2023/07/06 02:46:46;;;;;;;0.30;0.30;;;;;;;19.37;81.03;100127.28;5002028;28;20092;-71
2023/07/06 02:49:12;;;;;;;0.23;0.23;;;;;;;19.42;80.45;100127.09;5002190;28;20049;-70
2023/07/06 02:51:39;;;;;;;0.20;0.20;;;;;;;19.47;80.34;100133.63;5004251;28;20374;-70
2023/07/06 02:54:06;;;;;;;0.30;0.30;;;;;;;19.53;80.14;100133.13;5018534;28;20363;-70
2023/07/06 02:56:33;;;;;;;0.20;0.20;;;;;;;19.60;79.90;100131.81;4990476;28;20053;-70
2023/07/06 02:58:59;;;;;;;0.30;0.30;;;;;;;19.64;79.90;100132.78;5004020;28;20076;-70
2023/07/06 03:01:25;;;;;;;0.30;0.30;;;;;;;19.68;79.55;100123.50;5022585;28;20080;-71
2023/07/06 03:03:51;;;;;;;0.32;0.32;;;;;;;19.77;79.08;100128.19;5022965;28;20189;-70
2023/07/06 03:06:18;;;;;;;0.30;0.30;;;;;;;19.80;79.07;100127.53;5024327;28;20050;-70
2023/07/06 03:08:44;;;;;;;0.30;0.30;;;;;;;19.84;78.67;100134.06;5003777;28;20054;-70
2023/07/06 03:11:12;;;;;;;0.30;0.30;;;;;;;19.90;78.67;100131.91;5004604;28;20413;-70
2023/07/06 03:13:39;;;;;;;0.30;0.30;;;;;;;19.96;79.14;100125.09;5004624;28;20145;-69
2023/07/06 03:16:07;;;;;;;0.30;0.30;;;;;;;20.03;78.97;100136.47;5016174;28;20415;-71
2023/07/06 03:18:33;;;;;;;0.30;0.30;;;;;;;20.09;79.26;100131.56;5004770;28;20278;-70
2023/07/06 03:21:00;;;;;;;0.30;0.30;;;;;;;20.16;79.38;100131.88;5020697;28;20516;-71
2023/07/06 03:23:27;;;;;;;0.20;0.20;;;;;;;20.17;78.68;100136.28;5021820;28;20049;-71
2023/07/06 03:25:54;;;;;;;0.20;0.20;;;;;;;20.21;78.34;100134.47;5007037;28;20049;-70
2023/07/06 03:28:25;;;;;;;0.20;0.20;;;;;;;20.23;78.57;100139.72;5009054;28;20058;-70
2023/07/06 03:30:55;;;;;;;0.30;0.30;;;;;;;20.27;77.69;100135.91;5022074;28;20304;-70
2023/07/06 03:33:21;;;;;;;0.30;0.30;;;;;;;20.30;77.54;100139.19;5024856;28;20053;-71
2023/07/06 03:35:47;;;;;;;0.30;0.30;;;;;;;20.27;77.67;100129.56;5023447;28;20072;-70
2023/07/06 03:38:13;;;;;;;0.28;0.28;;;;;;;20.33;77.65;100138.53;5024016;28;20077;-70
2023/07/06 03:40:39;;;;;;;0.28;0.28;;;;;;;20.44;77.64;100144.50;5025570;28;20052;-73
2023/07/06 03:43:06;;;;;;;0.25;0.25;;;;;;;20.50;77.17;100138.44;5024392;28;20053;-70
2023/07/06 03:45:34;;;;;;;0.25;0.25;;;;;;;20.55;77.55;100141.03;5003887;28;20042;-70
2023/07/06 03:48:00;;;;;;;0.30;0.30;;;;;;;20.61;77.64;100136.09;5025019;28;20049;-70
2023/07/06 03:50:26;;;;;;;0.20;0.20;;;;;;;20.71;77.55;100137.66;5024647;28;20057;-70
2023/07/06 03:52:52;;;;;;;0.30;0.30;;;;;;;20.74;76.90;100139.78;5025499;28;20508;-70
2023/07/06 03:55:20;;;;;;;0.30;0.30;;;;;;;20.80;76.57;100138.47;5007502;28;20049;-70
2023/07/06 03:57:47;;;;;;;0.30;0.30;;;;;;;20.85;76.22;100131.09;5011658;28;20045;-71
2023/07/06 04:00:21;;;;;;;0.28;0.28;;;;;;;20.92;76.46;100143.31;5027081;28;20050;-70
2023/07/06 04:02:52;;;;;;;0.22;0.22;;;;;;;21.02;75.78;100135.72;5026634;28;20099;-70
2023/07/06 04:05:22;;;;;;;0.30;0.30;;;;;;;21.08;74.57;100139.94;5025494;28;20142;-70
2023/07/06 04:07:54;;;;;;;0.30;0.30;;;;;;;21.08;74.02;100129.63;5024711;28;20056;-70
2023/07/06 04:10:21;;;;;;;0.30;0.30;;;;;;;21.15;73.96;100139.38;4973444;28;20437;-70
2023/07/06 04:12:48;;;;;;;;;;;;;;;21.17;74.09;100128.75;4989066;28;20050;-70
2023/07/06 04:15:17;;;;;;;0.30;0.30;;;;;;;21.24;73.70;100131.81;5000563;28;19983;-70
2023/07/06 04:17:43;;;;;;;0.20;0.20;;;;;;;21.32;73.07;100130.09;5006861;28;20137;-71
2023/07/06 04:20:18;;;;;;;0.30;0.30;;;;;;;21.40;72.79;100120.88;5023918;28;20042;-70
2023/07/06 04:22:45;;;;;;;0.30;0.30;;;;;;;21.48;72.58;100125.56;5025072;28;20505;-70
2023/07/06 04:25:11;;;;;;;0.30;0.30;;;;;;;21.54;71.99;100131.69;4992213;28;20051;-70
2023/07/06 04:27:37;;;;;;;0.30;0.30;;;;;;;21.54;71.89;100131.69;5029612;28;20071;-73
2023/07/06 04:30:05;;;;;;;0.30;0.30;;;;;;;21.58;71.83;100131.81;5024156;28;20257;-70
2023/07/06 04:32:33;;;;;;;0.30;0.30;;;;;;;21.66;71.69;100130.97;4994325;28;20072;-71
2023/07/06 04:34:59;;;;;;;0.30;0.30;;;;;;;21.77;71.54;100134.94;5029299;28;20397;-71
2023/07/06 04:37:28;;;;;;;0.30;0.30;;;;;;;21.82;70.94;100131.13;5026119;28;20049;-71
2023/07/06 04:39:54;;;;;;;0.30;0.30;;;;;;;21.87;71.06;100136.50;5007475;28;20042;-71
2023/07/06 04:42:20;;;;;;;0.30;0.30;;;;;;;21.94;70.68;100139.50;5025679;28;20136;-72
2023/07/06 04:44:47;;;;;;;0.30;0.30;;;;;;;21.93;70.61;100140.69;5024926;28;20162;-74
2023/07/06 04:47:13;;;;;;;0.30;0.30;;;;;;;21.99;70.67;100146.84;5028081;28;20111;-74
2023/07/06 04:49:39;;;;;;;0.30;0.30;;;;;;;22.07;70.80;100145.91;5027340;28;20114;-75
2023/07/06 04:52:06;;;;;;;0.30;0.30;;;;;;;22.12;70.77;100138.53;5026602;28;20065;-74
2023/07/06 04:54:34;;;;;;;0.30;0.30;;;;;;;22.22;70.41;100150.03;5025379;28;20068;-71
2023/07/06 04:57:03;;;;;;;0.30;0.30;;;;;;;22.26;70.87;100146.53;5025791;28;20061;-70
2023/07/06 04:59:29;;;;;;;0.30;0.30;;;;;;;22.32;70.46;100145.13;5026531;28;20120;-71
2023/07/06 05:01:55;;;;;;;0.30;0.30;;;;;;;22.37;69.87;100137.38;5007445;28;20052;-72
2023/07/06 05:04:22;;;;;;;0.30;0.30;;;;;;;22.41;69.18;100145.84;5029738;28;20053;-69
2023/07/06 05:06:49;;;;;;;0.30;0.30;;;;;;;22.45;68.94;100141.22;5021607;28;20558;-71
2023/07/06 05:09:15;;;;;;;0.30;0.30;;;;;;;22.50;68.84;100138.25;4982904;28;20141;-71
2023/07/06 05:11:42;;;;;;;0.30;0.30;;;;;;;22.58;68.41;100136.50;4984617;28;20149;-71
2023/07/06 05:14:09;;;;;;;0.25;0.25;;;;;;;22.65;68.48;100131.16;4996692;28;20054;-71
2023/07/06 05:16:35;;;;;;;0.30;0.30;;;;;;;22.74;68.20;100138.59;5015059;28;20073;-70
2023/07/06 05:19:02;;;;;;;0.30;0.30;;;;;;;22.81;67.81;100133.22;4997453;28;20531;-70
2023/07/06 05:21:28;;;;;;;0.30;0.30;;;;;;;22.82;67.38;100134.06;5014992;28;20041;-71
2023/07/06 05:23:54;;;;;;;0.30;0.30;;;;;;;22.84;67.24;100135.31;5024415;28;20531;-70
2023/07/06 05:26:21;;;;;;;0.30;0.30;;;;;;;22.88;67.03;100132.63;5024774;28;20041;-70
2023/07/06 05:28:50;;;;;;;0.30;0.30;;;;;;;22.98;66.90;100125.75;5023501;28;20053;-70
2023/07/06 05:31:17;;;;;;;0.30;0.30;;;;;;;23.04;66.43;100133.53;4992466;28;20148;-71
2023/07/06 05:33:43;;;;;;;0.30;0.30;;;;;;;23.08;65.09;100131.66;5024795;28;20057;-71
2023/07/06 05:36:09;;;;;;;0.30;0.30;;;;;;;23.06;64.21;100131.19;5005107;28;20239;-70
2023/07/06 05:38:35;;;;;;;0.30;0.30;;;;;;;23.15;64.07;100133.06;5002969;28;20053;-70
2023/07/06 05:41:02;;;;;;;0.30;0.30;;;;;;;23.27;63.65;100137.81;5006155;28;20038;-70
2023/07/06 05:43:29;;;;;;;0.30;0.30;;;;;;;23.33;63.14;100136.38;5021153;28;20056;-70
2023/07/06 05:45:56;;;;;;;0.30;0.30;;;;;;;23.30;62.47;100132.34;5023297;28;20095;-70
2023/07/06 05:48:23;;;;;;;0.30;0.30;;;;;;;23.29;62.89;100129.91;5023506;28;20411;-70
2023/07/06 05:50:49;;;;;;;0.30;0.30;;;;;;;23.36;61.91;100130.91;5027074;28;20180;-70
2023/07/06 05:53:15;;;;;;;0.30;0.30;;;;;;;23.34;62.13;100129.66;5008114;28;20546;-70
2023/07/06 05:55:43;;;;;;;0.30;0.30;;;;;;;23.39;61.98;100117.44;5013873;28;20061;-70
2023/07/06 05:58:09;;;;;;;0.30;0.30;;;;;;;23.49;61.85;100117.75;5021664;28;20053;-71
2023/07/06 06:00:36;;;;;;;0.30;0.30;;;;;;;23.51;60.86;100115.41;5021699;28;20060;-70
2023/07/06 06:03:04;;;;;;;0.28;0.28;;;;;;;23.53;61.01;100109.47;5024973;28;20112;-71
2023/07/06 06:05:31;;;;;;;0.30;0.30;;;;;;;23.58;59.13;100109.22;5023219;28;20119;-71
2023/07/06 06:07:59;;;;;;;0.20;0.20;;;;;;;23.60;59.35;100109.69;5005780;28;20077;-71
2023/07/06 06:10:25;;;;;;;0.20;0.20;;;;;;;23.65;58.31;100108.63;5026536;28;20061;-71
2023/07/06 06:12:51;;;;;;;0.30;0.30;;;;;;;23.73;57.92;100107.63;5022590;28;20270;-71
2023/07/06 06:15:17;;;;;;;0.30;0.30;;;;;;;23.76;57.84;100109.69;5002461;28;20148;-70
2023/07/06 06:17:44;;;;;;;0.30;0.30;;;;;;;23.70;57.20;100097.19;5023795;28;20349;-71
2023/07/06 06:20:12;;;;;;;0.28;0.28;;;;;;;23.83;57.63;100111.06;5006235;28;20536;-71
2023/07/06 06:22:40;;;;;;;0.30;0.30;;;;;;;23.93;56.05;100113.31;5025510;28;20100;-70
2023/07/06 06:25:06;;;;;;;0.30;0.30;;;;;;;23.92;55.61;100106.13;5008110;28;20408;-71
2023/07/06 06:27:32;;;;;;;0.30;0.30;;;;;;;24.05;55.96;100107.69;5024950;28;20049;-71
2023/07/06 06:29:59;;;;;;;0.30;0.30;;;;;;;24.27;55.05;100113.00;5007752;28;20069;-71
2023/07/06 06:32:25;;;;;;;0.30;0.30;;;;;;;24.33;53.35;100101.22;5023519;28;20053;-71
2023/07/06 06:34:52;;;;;;;0.30;0.30;;;;;;;24.43;53.08;100113.00;5024637;28;20057;-70
2023/07/06 06:37:20;;;;;;;0.30;0.30;;;;;;;24.49;52.74;100103.97;5009372;28;20551;-70
2023/07/06 06:39:46;;;;;;;0.30;0.30;;;;;;;24.61;51.81;100102.25;5008362;28;20164;-70
2023/07/06 06:42:13;;;;;;;0.30;0.30;;;;;;;24.74;51.68;100111.31;5027207;28;20049;-70
2023/07/06 06:44:45;;;;;;;0.30;0.30;;;;;;;24.81;51.41;100116.28;5024234;28;20092;-71
2023/07/06 06:47:11;;;;;;;0.30;0.30;;;;;;;24.90;52.23;100111.31;5025080;28;20045;-70
2023/07/06 06:49:37;;;;;;;0.30;0.30;;;;;;;25.01;52.22;100106.78;5026439;28;20080;-70
2023/07/06 06:52:06;;;;;;;0.30;0.30;;;;;;;25.18;51.72;100107.53;5025212;28;20140;-71
2023/07/06 06:54:34;;;;;;;0.30;0.30;;;;;;;25.25;51.66;100113.25;5026563;28;20045;-71
2023/07/06 06:57:01;;;;;;;0.40;0.40;;;;;;;25.22;51.37;100119.59;5024360;28;20463;-70
2023/07/06 06:59:27;;;;;;;0.30;0.30;;;;;;;25.23;51.78;100124.03;5027078;28;20054;-70
2023/07/06 07:01:54;;;;;;;0.30;0.30;;;;;;;25.40;52.32;100121.97;5029397;28;20045;-70
2023/07/06 07:04:20;;;;;;;0.30;0.30;;;;;;;25.63;51.16;100120.06;5032412;28;20045;-70
2023/07/06 07:06:46;;;;;;;0.40;0.40;;;;;;;25.80;49.78;100117.16;4996702;28;20083;-70
2023/07/06 07:09:13;;;;;;;0.30;0.30;;;;;;;25.98;49.17;100114.69;5032042;28;20057;-70
2023/07/06 07:11:41;;;;;;;0.30;0.30;;;;;;;26.03;48.58;100114.38;5030697;28;20436;-70
2023/07/06 07:14:08;;;;;;;0.30;0.30;;;;;;;26.09;47.98;100114.88;5012384;28;20053;-71
2023/07/06 07:16:35;;;;;;;0.30;0.30;;;;;;;26.28;47.44;100122.44;5027551;28;20119;-71
2023/07/06 07:19:01;;;;;;;0.40;0.40;;;;;;;26.47;48.04;100122.34;5027921;28;20055;-69
2023/07/06 07:21:27;;;;;;;0.30;0.30;;;;;;;26.64;47.50;100123.00;5027057;28;20045;-71
2023/07/06 07:23:53;;;;;;;0.40;0.40;;;;;;;26.70;47.20;100126.31;4990404;28;20075;-70
2023/07/06 07:26:23;;;;;;;0.40;0.40;;;;;;;26.77;48.09;100134.81;5008571;28;20053;-71
2023/07/06 07:28:51;;;;;;;0.40;0.40;;;;;;;26.92;46.65;100140.66;5028255;28;20053;-72
2023/07/06 07:31:19;;;;;;;0.40;0.40;;;;;;;26.73;47.18;100134.78;5030685;28;20045;-70
2023/07/06 07:33:47;;;;;;;0.40;0.40;;;;;;;26.84;46.98;100129.31;5029317;28;20077;-71
2023/07/06 07:36:17;;;;;;;0.52;0.40;;;;;;;26.85;45.28;100146.94;5027118;28;20084;-70
2023/07/06 07:38:43;;;;;;;0.30;0.30;;;;;;;26.36;46.23;100143.00;5026931;28;20049;-70
2023/07/06 07:41:10;;;;;;;0.30;0.30;;;;;;;26.10;46.59;100142.53;5009692;28;20045;-71
2023/07/06 07:43:42;;;;;;;0.40;0.40;;;;;;;26.18;45.90;100155.50;5010178;28;20046;-71
2023/07/06 07:46:11;;;;;;;0.50;0.50;;;;;;;26.52;44.30;100149.25;5008450;28;20052;-71
2023/07/06 07:48:39;;;;;;;0.40;0.40;;;;;;;27.01;42.65;100156.03;5026876;28;20045;-70
2023/07/06 07:51:11;;;;;;;0.40;0.40;;;;;;;27.31;41.69;100155.22;4994419;28;20046;-70
2023/07/06 07:53:39;;;;;;;0.30;0.30;;;;;;;27.23;42.13;100156.34;5023282;28;20127;-71
2023/07/06 07:56:05;;;;;;;0.40;0.40;;;;;;;27.42;41.27;100152.56;5009959;28;20148;-71
2023/07/06 07:58:35;;;;;;;0.40;0.40;;;;;;;27.72;41.50;100154.56;5027641;28;20535;-70
2023/07/06 08:01:03;;;;;;;0.40;0.40;;;;;;;28.02;41.10;100144.41;5030176;28;20124;-70
2023/07/06 08:03:33;;;;;;;0.50;0.50;;;;;;;28.65;40.46;100155.81;5029878;28;20148;-72
2023/07/06 08:06:05;;;;;;;0.30;0.30;;;;;;;28.88;39.48;100154.81;5028192;28;20355;-71
2023/07/06 08:08:33;;;;;;;0.50;0.50;;;;;;;28.25;39.70;100158.31;5027868;28;20045;-71
2023/07/06 08:11:02;;;;;;;0.50;0.50;;;;;;;28.33;40.38;100173.25;5027960;28;20505;-71
2023/07/06 08:13:29;;;;;;;0.50;0.50;;;;;;;28.59;39.95;100158.19;4994137;28;20049;-71
2023/07/06 08:15:55;;;;;;;0.50;0.50;;;;;;;28.62;40.20;100156.59;5025886;28;20049;-71
2023/07/06 08:18:24;;;;;;;0.50;0.50;;;;;;;28.89;39.99;100147.16;5010206;28;20130;-71
2023/07/06 08:20:53;;;;;;;0.50;0.50;;;;;;;29.27;38.38;100153.38;5027426;28;20045;-71
2023/07/06 08:23:21;;;;;;;0.50;0.50;;;;;;;29.27;38.93;100157.03;5008853;28;20046;-70
2023/07/06 08:25:51;;;;;;;0.30;0.30;;;;;;;29.11;38.95;100154.56;4989229;28;20052;-71
2023/07/06 08:28:20;;;;;;;0.40;0.40;;;;;;;28.42;39.84;100151.25;5000162;28;20430;-71
2023/07/06 08:30:48;;;;;;;0.60;0.60;;;;;;;28.08;40.87;100159.72;5028415;28;20530;-71
2023/07/06 08:33:15;;;;;;;0.50;0.50;;;;;;;28.65;40.04;100155.03;5024874;28;20127;-72
2023/07/06 08:35:42;;;;;;;;;;;;;;;29.49;39.03;100145.88;5012070;28;20137;-70
2023/07/06 08:38:10;;;;;;;0.65;0.60;;;;;;;30.08;36.93;100155.31;5028977;28;21471;-69
2023/07/06 08:40:36;;;;;;;0.60;0.60;;;;;;;30.02;37.11;100151.25;5027935;28;20501;-71
2023/07/06 08:43:05;;;;;;;0.40;0.40;;;;;;;30.09;37.01;100145.66;5027957;28;20583;-70
2023/07/06 08:45:39;;;;;;;0.40;0.40;;;;;;;29.71;37.62;100143.13;5027477;28;20098;-71
2023/07/06 08:48:06;;;;;;;0.40;0.40;;;;;;;29.27;38.33;100145.75;5027589;28;20041;-70
2023/07/06 08:50:36;;;;;;;0.40;0.40;;;;;;;28.68;40.02;100154.25;5011424;28;20076;-71
2023/07/06 08:53:09;;;;;;;0.60;0.60;;;;;;;28.66;40.32;100146.19;5026232;28;20042;-71
2023/07/06 08:55:37;;;;;;;0.60;0.60;;;;;;;29.66;38.82;100143.50;5007398;28;20572;-71
2023/07/06 08:58:04;;;;;;;0.70;0.70;;;;;;;30.45;36.74;100133.59;5028931;28;20053;-71
2023/07/06 09:00:31;;;;;;;0.50;0.50;;;;;;;30.51;36.30;100140.44;5025640;28;20205;-71
2023/07/06 09:03:05;;;;;;;0.60;0.60;;;;;;;30.52;36.11;100133.56;5026607;28;20041;-71
2023/07/06 09:05:34;;;;;;;0.60;0.60;;;;;;;30.65;35.79;100129.16;5025020;28;20061;-71
2023/07/06 09:08:00;;;;;;;0.60;0.60;;;;;;;30.93;35.70;100124.66;5007764;28;20049;-71
2023/07/06 09:10:28;;;;;;;0.50;0.50;;;;;;;30.82;35.60;100115.41;4676346;28;9999868;-70
2023/07/06 09:13:11;;;;;;;0.50;0.50;;;;;;;30.54;36.14;100129.16;5023971;28;20076;-70
2023/07/06 09:15:38;;;;;;;0.60;0.60;;;;;;;30.59;34.92;100136.38;5018013;28;20061;-70
2023/07/06 09:18:05;;;;;;;0.50;0.50;;;;;;;30.56;34.97;100129.53;4992025;28;20223;-70
2023/07/06 09:20:33;;;;;;;0.50;0.50;;;;;;;30.52;35.72;100131.56;5025325;28;20049;-71
2023/07/06 09:23:01;;;;;;;0.50;0.50;;;;;;;30.36;36.15;100129.16;5026124;28;20038;-71
2023/07/06 09:25:35;;;;;;;0.50;0.50;;;;;;;30.11;36.59;100131.97;5024165;28;20077;-71
2023/07/06 09:28:07;;;;;;;0.60;0.60;;;;;;;29.79;36.94;100136.31;5009400;28;20493;-70
2023/07/06 09:30:38;;;;;;;0.60;0.60;;;;;;;29.90;36.41;100125.06;5026820;28;20179;-72
2023/07/06 09:33:13;;;;;;;0.70;0.70;;;;;;;30.01;37.16;100122.28;5024864;28;20140;-70
2023/07/06 09:35:41;;;;;;;0.70;0.70;;;;;;;30.51;36.71;100117.88;4996663;28;20060;-69
2023/07/06 09:38:12;;;;;;;0.90;0.90;;;;;;;30.72;37.58;100110.59;5006313;28;20041;-69
2023/07/06 09:40:43;;;;;;;0.80;0.80;;;;;;;30.51;39.26;100113.00;5006138;28;20073;-69
2023/07/06 09:43:21;;;;;;;0.80;0.80;;;;;;;29.86;44.03;100127.88;5032778;28;20077;-69
2023/07/06 09:45:49;;;;;;;;;;;;;;;29.34;44.61;100127.28;5008011;28;20079;-68
2023/07/06 09:48:27;;;;;;;0.90;0.90;;;;;;;28.81;44.56;100135.06;5025341;28;19935;-68
2023/07/06 09:50:58;;;;;;;1.15;1.05;;;;;;;28.80;48.63;100116.53;5023653;28;20041;-68
2023/07/06 09:53:28;;;;;;;0.60;0.60;;;;;;;28.92;47.20;100110.63;5022055;28;20084;-68
2023/07/06 09:55:55;;;;;;;1.38;1.10;;;;;;;28.92;45.71;100107.00;5005891;28;20061;-68
2023/07/06 09:58:24;;;;;;;1.00;0.90;;;;;;;28.41;48.43;100118.72;5024080;28;20052;-68
2023/07/06 10:00:57;;;;;;;1.83;1.45;;;;;;;27.60;48.91;100109.88;5024991;28;20071;-69
2023/07/06 10:03:34;;;;;;;0.75;0.73;;;;;;;27.03;48.69;100111.59;5026058;28;20049;-68
2023/07/06 10:06:07;;;;;;;1.02;0.90;;;;;;;26.46;53.92;100123.53;5025365;28;20143;-67
2023/07/06 10:08:38;;;;;;;0.60;0.60;;;;;;;26.15;53.50;100116.19;5024934;28;20053;-68
2023/07/06 10:11:12;;;;;;;0.63;0.63;;;;;;;25.71;58.15;100106.19;5024580;28;20045;-68
2023/07/06 10:13:49;;;;;;;0.60;0.60;;;;;;;25.10;60.21;100102.94;5007426;28;20099;-68
2023/07/06 10:16:24;;;;;;;0.50;0.50;;;;;;;24.71;60.09;100118.47;5006355;28;20499;-68
2023/07/06 10:18:54;;;;;;;0.50;0.50;;;;;;;24.78;57.44;100098.28;5020750;28;20041;-68
2023/07/06 10:21:26;;;;;;;0.50;0.50;;;;;;;24.38;61.57;100104.91;5020739;28;20128;-70
2023/07/06 10:24:06;;;;;;;0.50;0.50;;;;;;;24.57;56.77;100109.75;5025707;28;20602;-71
2023/07/06 10:26:34;;;;;;;0.50;0.50;;;;;;;24.23;59.54;100101.75;5024194;28;20042;-70
2023/07/06 10:29:08;;;;;;;0.60;0.60;;;;;;;24.71;58.41;100107.28;5024194;28;20124;-70
2023/07/06 10:31:42;;;;;;;0.60;0.60;;;;;;;25.10;56.90;100095.38;5025255;28;20505;-69
2023/07/06 10:34:15;;;;;;;1.10;1.00;;;;;;;25.27;58.28;100104.50;5007047;28;20053;-71
2023/07/06 10:36:42;;;;;;;0.90;0.90;;;;;;;25.72;56.38;100108.63;5026914;28;20140;-69
2023/07/06 10:39:32;;;;;;;1.15;1.10;;;;;;;25.75;55.50;100109.88;5026927;28;20528;-70
2023/07/06 10:42:03;;;;;;;2.53;2.33;;;;;;;25.45;55.45;100108.47;5006037;28;20536;-71
2023/07/06 10:44:50;;;;;;;0.80;0.80;;;;;;;25.80;58.35;100108.75;5006659;28;20045;-71
2023/07/06 10:47:37;;;;;;;1.35;1.25;;;;;;;25.60;59.20;100109.63;5009377;28;20093;-71
2023/07/06 10:50:22;;;;;;;0.90;0.90;;;;;;;25.73;59.06;100099.06;5022785;28;20038;-71
2023/07/06 10:53:04;;;;;;;1.17;1.13;;;;;;;26.17;58.46;100102.63;5025220;28;20046;-71
2023/07/06 10:55:35;;;;;;;1.63;1.52;;;;;;;25.83;54.76;100108.00;5008184;28;20101;-71
2023/07/06 10:58:24;;;;;;;1.45;1.35;;;;;;;25.71;55.06;100089.41;5008371;28;20046;-71
2023/07/06 11:00:53;;;;;;;1.50;1.40;;;;;;;25.84;56.33;100087.25;5025217;28;20123;-71
2023/07/06 11:03:23;;;;;;;1.58;1.40;;;;;;;26.09;55.78;100090.50;5006892;28;20050;-71
2023/07/06 11:06:05;;;;;;;0.50;0.50;;;;;;;25.64;55.40;100087.28;5026986;28;20429;-70
2023/07/06 11:09:04;;;;;;;1.00;1.00;;;;;;;25.34;58.10;100094.28;5026772;28;20057;-72
2023/07/06 11:11:34;;;;;;;1.25;1.15;;;;;;;26.05;56.61;100092.41;5024493;28;20528;-71
2023/07/06 11:14:18;;;;;;;1.10;1.10;;;;;;;26.42;56.13;100085.44;5008581;28;20049;-71
2023/07/06 11:16:55;;;;;;;1.10;1.10;;;;;;;26.42;55.70;100075.03;5024331;28;20053;-70
2023/07/06 11:19:26;;;;;;;1.10;1.10;;;;;;;26.27;52.48;100088.00;5024855;28;20156;-70
2023/07/06 11:21:58;;;;;;;1.10;1.10;;;;;;;26.37;55.27;100071.75;5027238;28;20057;-71
2023/07/06 11:24:32;;;;;;;1.30;1.20;;;;;;;26.56;53.23;100090.47;5007512;28;20501;-70
2023/07/06 11:27:03;;;;;;;1.20;1.20;;;;;;;26.66;54.25;100084.19;5025249;28;20052;-68
2023/07/06 11:29:30;;;;;;;1.30;1.20;;;;;;;26.07;56.57;100070.44;5007342;28;20100;-69
2023/07/06 11:32:13;;;;;;;1.00;1.00;;;;;;;27.03;63.07;100071.50;5020451;28;20116;-68
2023/07/06 11:34:48;;;;;;;1.10;1.10;;;;;;;27.13;59.71;100062.41;5021623;28;20049;-68
2023/07/06 11:37:23;;;;;;;1.33;1.23;;;;;;;27.33;55.87;100073.47;5008619;28;20503;-69